Time;durP1;ratioP1;P1;durP2;ratioP2;P2;SDS_P1;SDS_P2;PMS_P1;PMS_P2;Temp;Humidity;BMP_temperature;BMP_pressure;BME280_temperature;BME280_humidity;BME280_pressure;Samples;Min_cycle;Max_cycle;Signal;HPM_P1;HPM_P2
2024/02/23 00:00:51;;;;;;;2.37;0.50;;;15.00;99.90;;;;;;5006007;28;20099;-76
2024/02/23 00:03:16;;;;;;;3.40;0.67;;;15.00;99.90;;;;;;5007036;28;20053;-77
2024/02/23 00:05:42;;;;;;;2.27;0.30;;;15.00;99.90;;;;;;4996612;28;20030;-77
2024/02/23 00:08:10;;;;;;;3.87;0.60;;;15.00;99.90;;;;;;5000689;28;20042;-77
2024/02/23 00:10:36;;;;;;;2.88;0.68;;;15.00;99.90;;;;;;5009788;28;20030;-77
2024/02/23 00:13:02;;;;;;;1.97;0.53;;;14.90;99.90;;;;;;4998774;28;20056;-76
2024/02/23 00:15:28;;;;;;;1.00;0.37;;;14.90;99.90;;;;;;5010167;28;20030;-76
2024/02/23 00:17:53;;;;;;;1.23;0.40;;;14.90;99.90;;;;;;4997790;28;20030;-76
2024/02/23 00:20:19;;;;;;;3.27;0.87;;;14.90;99.90;;;;;;4998551;28;20113;-77
2024/02/23 00:22:45;;;;;;;3.37;1.10;;;14.90;99.90;;;;;;5003388;28;20083;-77
2024/02/23 00:25:10;;;;;;;2.10;0.60;;;14.90;99.90;;;;;;4999735;28;20037;-77
2024/02/23 00:27:36;;;;;;;0.70;0.40;;;14.90;99.90;;;;;;5011351;28;20061;-77
2024/02/23 00:30:03;;;;;;;2.50;0.50;;;14.80;99.90;;;;;;5012288;28;20049;-76
2024/02/23 00:32:29;;;;;;;1.38;0.50;;;14.90;99.90;;;;;;5010304;28;20369;-76
2024/02/23 00:34:57;;;;;;;1.30;0.43;;;14.90;99.90;;;;;;5012513;28;20057;-77
2024/02/23 00:37:23;;;;;;;2.25;0.32;;;14.90;99.90;;;;;;5001825;28;20503;-77
2024/02/23 00:39:49;;;;;;;3.60;0.70;;;14.90;99.90;;;;;;5005690;28;20030;-77
2024/02/23 00:42:14;;;;;;;2.13;0.40;;;14.80;99.90;;;;;;5010193;28;20099;-77
2024/02/23 00:44:40;;;;;;;1.87;0.70;;;14.80;99.90;;;;;;5009801;28;20036;-77
2024/02/23 00:47:06;;;;;;;4.07;0.93;;;14.80;99.90;;;;;;5009661;28;20030;-77
2024/02/23 00:49:32;;;;;;;2.42;0.68;;;14.80;99.90;;;;;;5011580;28;20079;-76
2024/02/23 00:51:57;;;;;;;3.37;0.80;;;14.80;99.90;;;;;;5010504;28;20125;-76
2024/02/23 00:54:23;;;;;;;3.10;0.70;;;14.80;99.90;;;;;;5011385;28;20026;-76
2024/02/23 00:56:49;;;;;;;2.17;0.50;;;14.80;99.90;;;;;;5010290;28;20022;-77
2024/02/23 00:59:14;;;;;;;5.23;1.00;;;14.80;99.90;;;;;;5007455;28;20033;-77
2024/02/23 01:01:40;;;;;;;3.17;0.83;;;14.80;99.90;;;;;;5008317;28;20119;-76
2024/02/23 01:04:06;;;;;;;1.87;0.60;;;14.80;99.90;;;;;;5007042;28;20041;-77
2024/02/23 01:06:32;;;;;;;3.67;0.60;;;14.80;99.90;;;;;;5007931;28;20691;-77
2024/02/23 01:08:57;;;;;;;1.50;0.90;;;14.80;99.90;;;;;;4998648;28;20062;-76
2024/02/23 01:11:23;;;;;;;3.27;0.50;;;14.70;99.90;;;;;;4995273;28;20037;-77
2024/02/23 01:13:49;;;;;;;3.50;1.20;;;14.70;99.90;;;;;;5010667;28;20033;-76
2024/02/23 01:16:15;;;;;;;3.03;0.87;;;14.70;99.90;;;;;;5006950;28;20271;-77
2024/02/23 01:18:41;;;;;;;5.60;0.77;;;14.70;99.90;;;;;;5008128;28;20045;-77
2024/02/23 01:21:08;;;;;;;2.07;0.73;;;14.70;99.90;;;;;;5008828;28;20045;-77
2024/02/23 01:23:33;;;;;;;2.63;0.60;;;14.70;99.90;;;;;;5010847;28;20039;-76
2024/02/23 01:26:00;;;;;;;4.63;0.77;;;14.70;99.90;;;;;;5007912;28;20030;-76
2024/02/23 01:28:26;;;;;;;1.33;0.43;;;14.70;99.90;;;;;;5002642;28;20046;-77
2024/02/23 01:30:51;;;;;;;2.80;1.00;;;14.70;99.90;;;;;;5006536;28;20126;-76
2024/02/23 01:33:17;;;;;;;2.07;0.90;;;14.70;99.90;;;;;;5000257;28;20030;-76
2024/02/23 01:35:43;;;;;;;3.57;0.80;;;14.70;99.90;;;;;;4997919;28;20038;-77
2024/02/23 01:38:09;;;;;;;3.73;0.80;;;14.60;99.90;;;;;;5007233;28;20037;-77
2024/02/23 01:40:35;;;;;;;5.17;0.83;;;14.70;99.90;;;;;;5010479;28;20033;-77
2024/02/23 01:43:05;;;;;;;3.25;0.60;;;14.70;99.90;;;;;;5005693;28;20084;-77
2024/02/23 01:45:31;;;;;;;4.20;0.70;;;14.60;99.90;;;;;;5004353;28;20109;-77
2024/02/23 01:47:57;;;;;;;4.80;0.98;;;14.60;99.90;;;;;;4992416;28;20030;-76
2024/02/23 01:50:24;;;;;;;4.65;1.00;;;14.60;99.90;;;;;;4993279;28;20030;-77
2024/02/23 01:52:52;;;;;;;4.38;0.65;;;14.60;99.90;;;;;;5004146;28;20030;-77
2024/02/23 01:55:20;;;;;;;2.50;0.60;;;14.60;99.90;;;;;;5000579;28;20033;-77
2024/02/23 01:57:47;;;;;;;3.03;0.70;;;14.70;99.90;;;;;;5005643;28;20109;-77
2024/02/23 02:00:17;;;;;;;1.05;0.68;;;14.60;99.90;;;;;;5000250;28;20033;-77
2024/02/23 02:02:44;;;;;;;2.90;0.93;;;14.60;99.90;;;;;;5004994;28;20030;-76
2024/02/23 02:05:10;;;;;;;3.47;0.82;;;14.60;99.90;;;;;;5010412;28;20033;-77
2024/02/23 02:07:35;;;;;;;5.87;1.20;;;14.60;99.90;;;;;;5005356;28;20484;-77
2024/02/23 02:10:03;;;;;;;2.50;0.60;;;14.60;99.90;;;;;;5006065;28;20049;-78
2024/02/23 02:12:29;;;;;;;3.17;1.52;;;14.60;99.90;;;;;;4998940;28;20034;-77
2024/02/23 02:14:55;;;;;;;3.37;0.70;;;14.60;99.90;;;;;;4996589;28;20033;-77
2024/02/23 02:17:21;;;;;;;2.85;0.65;;;14.50;99.90;;;;;;4992608;28;20022;-76
2024/02/23 02:19:51;;;;;;;5.90;1.00;;;14.60;99.90;;;;;;5004350;28;20038;-77
2024/02/23 02:22:17;;;;;;;2.28;0.75;;;14.60;99.90;;;;;;5006622;28;20059;-77
2024/02/23 02:24:46;;;;;;;2.43;0.73;;;14.50;99.90;;;;;;5009073;28;20763;-77
2024/02/23 02:27:12;;;;;;;2.72;0.80;;;14.50;99.90;;;;;;5006397;28;20026;-77
2024/02/23 02:29:37;;;;;;;1.37;0.70;;;14.50;99.90;;;;;;4997417;28;20034;-77
2024/02/23 02:32:03;;;;;;;3.20;0.87;;;14.50;99.90;;;;;;5009205;28;20092;-77
2024/02/23 02:34:29;;;;;;;3.75;0.70;;;14.50;99.90;;;;;;5007715;28;20091;-77
2024/02/23 02:36:55;;;;;;;2.77;0.87;;;14.50;99.90;;;;;;5004879;28;20042;-77
2024/02/23 02:39:21;;;;;;;3.55;1.05;;;14.50;99.90;;;;;;5001750;28;20535;-77
2024/02/23 02:41:50;;;;;;;3.50;1.20;;;14.50;99.90;;;;;;4997265;28;20084;-77
2024/02/23 02:44:16;;;;;;;1.65;0.60;;;14.40;99.90;;;;;;5010592;28;20498;-77
2024/02/23 02:46:42;;;;;;;5.07;0.63;;;14.40;99.90;;;;;;4996910;28;20073;-77
2024/02/23 02:49:07;;;;;;;3.23;0.83;;;14.40;99.90;;;;;;5013590;28;20070;-78
2024/02/23 02:51:33;;;;;;;2.43;0.73;;;14.40;99.90;;;;;;5019542;28;20072;-77
2024/02/23 02:53:59;;;;;;;4.53;0.90;;;14.40;99.90;;;;;;5019218;28;20429;-77
2024/02/23 02:56:25;;;;;;;9.07;1.47;;;14.40;99.90;;;;;;5014582;28;20040;-78
2024/02/23 02:58:50;;;;;;;1.20;0.73;;;14.40;99.90;;;;;;5018169;28;20030;-77
2024/02/23 03:01:16;;;;;;;3.30;0.80;;;14.30;99.90;;;;;;5017962;28;20034;-77
2024/02/23 03:03:42;;;;;;;3.97;0.90;;;14.40;99.90;;;;;;5018919;28;20369;-77
2024/02/23 03:06:07;;;;;;;2.17;0.77;;;14.40;99.90;;;;;;5008811;28;20601;-77
2024/02/23 03:08:34;;;;;;;2.13;0.90;;;14.30;99.90;;;;;;5009925;28;20050;-77
2024/02/23 03:10:59;;;;;;;3.78;0.63;;;14.30;99.90;;;;;;5007288;28;20037;-77
2024/02/23 03:13:25;;;;;;;1.73;0.60;;;14.30;99.90;;;;;;5009295;28;20033;-77
2024/02/23 03:15:51;;;;;;;4.40;1.00;;;14.30;99.90;;;;;;5009963;28;20782;-76
2024/02/23 03:18:16;;;;;;;2.30;0.60;;;14.30;99.90;;;;;;5006817;28;20065;-77
2024/02/23 03:20:42;;;;;;;3.07;0.47;;;14.30;99.90;;;;;;5008578;28;20026;-77
2024/02/23 03:23:08;;;;;;;2.08;0.68;;;14.30;99.90;;;;;;5004445;28;20030;-77
2024/02/23 03:25:34;;;;;;;1.27;0.50;;;14.30;99.90;;;;;;5006574;28;20048;-77
2024/02/23 03:28:00;;;;;;;1.97;0.60;;;14.20;99.90;;;;;;5008467;28;20026;-77
2024/02/23 03:30:26;;;;;;;3.95;0.65;;;14.20;99.90;;;;;;4996425;28;20034;-77
2024/02/23 03:32:51;;;;;;;3.87;0.70;;;14.30;99.90;;;;;;5008989;28;20030;-77
2024/02/23 03:35:17;;;;;;;3.53;0.93;;;14.30;99.90;;;;;;5004346;28;20113;-77
2024/02/23 03:37:43;;;;;;;2.83;0.80;;;14.20;99.90;;;;;;5002457;28;20376;-77
2024/02/23 03:40:10;;;;;;;3.37;1.20;;;14.20;99.90;;;;;;5008349;28;20025;-77
2024/02/23 03:42:36;;;;;;;1.77;0.52;;;14.20;99.90;;;;;;5000392;28;20042;-77
2024/02/23 03:45:02;;;;;;;1.67;0.90;;;14.20;99.90;;;;;;5008147;28;20105;-76
2024/02/23 03:47:28;;;;;;;3.13;0.70;;;14.20;99.90;;;;;;5002525;28;20026;-76
2024/02/23 03:49:54;;;;;;;3.23;0.50;;;14.20;99.90;;;;;;5009671;28;20037;-77
2024/02/23 03:52:20;;;;;;;2.67;0.57;;;14.20;99.90;;;;;;5001087;28;20105;-78
2024/02/23 03:54:45;;;;;;;2.67;0.60;;;14.20;99.90;;;;;;5003222;28;20113;-77
2024/02/23 03:57:11;;;;;;;3.53;0.50;;;14.20;99.90;;;;;;5012208;28;20037;-77
2024/02/23 03:59:37;;;;;;;3.10;0.60;;;14.20;99.90;;;;;;5004078;28;20535;-77
2024/02/23 04:02:04;;;;;;;3.60;0.50;;;14.20;99.90;;;;;;5012404;28;20034;-77
2024/02/23 04:04:29;;;;;;;1.55;0.50;;;14.20;99.90;;;;;;5007541;28;20037;-77
2024/02/23 04:06:55;;;;;;;2.00;0.60;;;14.20;99.90;;;;;;5004766;28;20116;-77
2024/02/23 04:09:21;;;;;;;1.50;0.50;;;14.20;99.90;;;;;;5009124;28;20104;-77
2024/02/23 04:11:50;;;;;;;5.10;1.43;;;14.10;99.90;;;;;;5009269;28;20510;-77
2024/02/23 04:14:15;;;;;;;3.10;0.47;;;14.20;99.90;;;;;;5009768;28;20041;-76
2024/02/23 04:16:41;;;;;;;4.77;0.70;;;14.10;99.90;;;;;;5006142;28;20033;-77
2024/02/23 04:19:07;;;;;;;3.57;1.10;;;14.10;99.90;;;;;;5007229;28;20636;-77
2024/02/23 04:21:32;;;;;;;1.60;0.53;;;14.10;99.90;;;;;;5010603;28;20435;-77
2024/02/23 04:23:58;;;;;;;4.20;0.80;;;14.10;99.90;;;;;;5009820;28;20079;-76
2024/02/23 04:26:24;;;;;;;3.93;0.83;;;14.10;99.90;;;;;;5012097;28;20073;-77
2024/02/23 04:28:49;;;;;;;1.50;0.50;;;14.10;99.90;;;;;;5009624;28;20443;-77
2024/02/23 04:31:15;;;;;;;2.63;0.67;;;14.10;99.90;;;;;;5009653;28;20049;-77
2024/02/23 04:33:41;;;;;;;0.93;0.70;;;14.10;99.90;;;;;;5010417;28;20608;-77
2024/02/23 04:36:07;;;;;;;2.53;1.20;;;14.10;99.90;;;;;;5009826;28;20069;-77
2024/02/23 04:38:34;;;;;;;3.73;0.63;;;14.10;99.90;;;;;;5010635;28;20067;-77
2024/02/23 04:41:04;;;;;;;2.10;0.73;;;14.00;99.90;;;;;;5007738;28;20034;-77
2024/02/23 04:43:29;;;;;;;4.82;0.60;;;14.00;99.90;;;;;;5010721;28;20030;-77
2024/02/23 04:45:55;;;;;;;3.43;0.87;;;14.00;99.90;;;;;;5010784;28;20033;-77
2024/02/23 04:48:21;;;;;;;1.37;0.53;;;14.00;99.90;;;;;;5010142;28;20040;-76
2024/02/23 04:50:46;;;;;;;2.10;0.70;;;14.00;99.90;;;;;;5003198;28;20033;-77
2024/02/23 04:53:12;;;;;;;1.57;0.50;;;14.00;99.90;;;;;;5008742;28;20072;-77
2024/02/23 04:55:38;;;;;;;5.67;0.87;;;14.00;99.90;;;;;;5010798;28;20060;-77
2024/02/23 04:58:04;;;;;;;1.60;0.50;;;14.00;99.90;;;;;;5010273;28;20113;-77
2024/02/23 05:00:33;;;;;;;3.03;0.77;;;14.00;99.90;;;;;;5005880;28;20035;-77
2024/02/23 05:03:03;;;;;;;3.15;0.70;;;13.90;99.90;;;;;;5006529;28;20042;-77
2024/02/23 05:05:32;;;;;;;2.78;0.50;;;13.90;99.90;;;;;;4997597;28;20022;-77
2024/02/23 05:07:59;;;;;;;2.00;0.57;;;13.90;99.90;;;;;;5009787;28;20916;-77
2024/02/23 05:10:24;;;;;;;;;;;13.90;99.90;;;;;;5010270;28;20361;-77
2024/02/23 05:12:50;;;;;;;3.30;0.50;;;13.90;99.90;;;;;;5011434;28;19924;-77
2024/02/23 05:15:16;;;;;;;2.77;0.50;;;13.90;99.90;;;;;;4998071;28;20117;-77
2024/02/23 05:17:42;;;;;;;1.03;0.50;;;13.90;99.90;;;;;;5011692;28;20108;-76
2024/02/23 05:20:10;;;;;;;1.67;0.73;;;13.90;99.90;;;;;;5007452;28;20053;-77
2024/02/23 05:22:39;;;;;;;1.35;0.50;;;13.90;99.90;;;;;;5011416;28;20033;-77
2024/02/23 05:25:05;;;;;;;5.25;0.57;;;13.90;99.90;;;;;;5009536;28;20029;-77
2024/02/23 05:27:31;;;;;;;2.33;0.47;;;13.90;99.90;;;;;;5002246;28;20480;-76
2024/02/23 05:29:57;;;;;;;1.60;0.60;;;13.90;99.90;;;;;;5009670;28;20033;-77
2024/02/23 05:32:23;;;;;;;2.47;0.50;;;13.90;99.90;;;;;;5007888;28;20298;-77
2024/02/23 05:34:51;;;;;;;4.77;0.50;;;13.90;99.90;;;;;;5009370;28;20510;-77
2024/02/23 05:37:17;;;;;;;4.03;0.55;;;13.80;99.90;;;;;;5004677;28;20030;-77
2024/02/23 05:39:45;;;;;;;4.72;0.60;;;13.80;99.90;;;;;;5003822;28;20069;-77
2024/02/23 05:42:12;;;;;;;2.25;0.52;;;13.90;99.90;;;;;;5009633;28;20694;-77
2024/02/23 05:44:37;;;;;;;4.72;0.60;;;13.90;99.90;;;;;;5010190;28;20041;-77
2024/02/23 05:47:03;;;;;;;0.87;0.40;;;13.80;99.90;;;;;;5004884;28;20022;-77
2024/02/23 05:49:29;;;;;;;1.47;0.60;;;13.80;99.90;;;;;;5009680;28;20026;-77
2024/02/23 05:51:55;;;;;;;5.03;1.13;;;13.80;99.90;;;;;;5008907;28;20037;-77
2024/02/23 05:54:20;;;;;;;2.50;0.90;;;13.80;99.90;;;;;;5010651;28;20026;-78
2024/02/23 05:56:46;;;;;;;4.40;0.80;;;13.80;99.90;;;;;;5008111;28;20387;-77
2024/02/23 05:59:12;;;;;;;4.13;0.90;;;13.80;99.90;;;;;;5009739;28;20041;-76
2024/02/23 06:01:38;;;;;;;0.60;0.47;;;13.80;99.90;;;;;;5008682;28;20038;-77
2024/02/23 06:04:05;;;;;;;2.03;0.75;;;13.80;99.90;;;;;;5001318;28;20038;-77
2024/02/23 06:06:31;;;;;;;4.38;0.63;;;13.80;99.90;;;;;;5004027;28;20053;-77
2024/02/23 06:08:57;;;;;;;2.33;0.52;;;13.80;99.90;;;;;;5010296;28;20042;-76
2024/02/23 06:11:22;;;;;;;0.87;0.50;;;13.80;99.90;;;;;;5010328;28;20045;-77
2024/02/23 06:13:48;;;;;;;3.10;0.50;;;13.80;99.90;;;;;;5010221;28;20022;-77
2024/02/23 06:16:15;;;;;;;4.38;0.93;;;13.70;99.90;;;;;;5009113;28;20040;-76
2024/02/23 06:18:41;;;;;;;3.72;0.60;;;13.70;99.90;;;;;;4998235;28;20081;-76
2024/02/23 06:21:17;;;;;;;2.83;1.13;;;13.70;99.90;;;;;;5009144;28;20034;-76
2024/02/23 06:23:43;;;;;;;1.10;0.55;;;13.70;99.90;;;;;;5008368;28;20498;-77
2024/02/23 06:26:10;;;;;;;3.75;0.90;;;13.70;99.90;;;;;;5009046;28;20501;-76
2024/02/23 06:28:38;;;;;;;2.03;0.75;;;13.70;99.90;;;;;;5008618;28;20025;-77
2024/02/23 06:31:08;;;;;;;1.38;0.75;;;13.70;99.90;;;;;;4997436;28;20034;-76
2024/02/23 06:33:34;;;;;;;1.83;0.50;;;13.80;99.90;;;;;;4998076;28;20030;-76
2024/02/23 06:36:00;;;;;;;3.80;0.97;;;13.70;99.90;;;;;;5008229;28;20538;-77
2024/02/23 06:38:26;;;;;;;2.20;0.70;;;13.70;99.90;;;;;;5003641;28;20122;-78
2024/02/23 06:40:52;;;;;;;3.40;0.70;;;13.70;99.90;;;;;;5003979;28;20049;-76
2024/02/23 06:43:18;;;;;;;1.37;0.53;;;13.70;99.90;;;;;;5007017;28;20399;-76
2024/02/23 06:45:44;;;;;;;2.40;0.50;;;13.70;99.90;;;;;;5009276;28;20037;-76
2024/02/23 06:48:10;;;;;;;1.60;0.50;;;13.70;99.90;;;;;;5009111;28;20497;-77
2024/02/23 06:50:36;;;;;;;1.50;0.87;;;13.70;99.90;;;;;;5009103;28;20041;-77
2024/02/23 06:53:02;;;;;;;2.05;0.70;;;13.70;99.90;;;;;;5006964;28;20029;-76
2024/02/23 06:55:28;;;;;;;2.67;0.60;;;13.70;99.90;;;;;;5010011;28;20100;-77
2024/02/23 06:57:54;;;;;;;2.47;0.60;;;13.60;99.90;;;;;;5011844;28;20030;-77
2024/02/23 07:00:21;;;;;;;1.45;0.60;;;13.70;99.90;;;;;;5011765;28;20030;-77
2024/02/23 07:02:47;;;;;;;2.60;0.63;;;13.60;99.90;;;;;;5013405;28;20037;-76
2024/02/23 07:05:14;;;;;;;1.55;0.65;;;13.60;99.90;;;;;;5010343;28;20061;-77
2024/02/23 07:07:41;;;;;;;2.33;0.80;;;13.60;99.90;;;;;;5012181;28;20100;-76
2024/02/23 07:10:07;;;;;;;;;;;13.60;99.90;;;;;;5007060;28;20035;-77
2024/02/23 07:12:32;;;;;;;2.13;0.70;;;13.60;99.90;;;;;;5012402;28;20012;-76
2024/02/23 07:14:58;;;;;;;0.87;0.50;;;13.60;99.90;;;;;;5012196;28;20623;-77
2024/02/23 07:17:24;;;;;;;1.30;0.53;;;13.60;99.90;;;;;;5010239;28;20503;-77
2024/02/23 07:19:51;;;;;;;1.57;0.50;;;13.60;99.90;;;;;;5000715;28;20034;-77
2024/02/23 07:22:20;;;;;;;1.92;0.75;;;13.60;99.90;;;;;;5005981;28;20125;-78
2024/02/23 07:24:46;;;;;;;2.63;0.80;;;13.60;99.90;;;;;;5013690;28;20030;-76
2024/02/23 07:27:12;;;;;;;3.42;0.82;;;13.70;99.90;;;;;;5011108;28;20112;-77
2024/02/23 07:29:37;;;;;;;2.10;0.60;;;13.70;99.90;;;;;;5011622;28;20112;-77
2024/02/23 07:32:03;;;;;;;2.63;0.70;;;13.80;99.90;;;;;;4998595;28;20731;-77
2024/02/23 07:34:31;;;;;;;2.77;0.60;;;13.90;99.90;;;;;;5011040;28;20038;-77
2024/02/23 07:36:57;;;;;;;17.35;1.05;;;14.00;99.90;;;;;;5001325;28;20275;-78
2024/02/23 07:39:22;;;;;;;7.83;1.03;;;14.00;99.90;;;;;;5011586;28;20026;-76
2024/02/23 07:41:48;;;;;;;9.43;1.20;;;14.00;99.90;;;;;;5009474;28;20030;-77
2024/02/23 07:44:14;;;;;;;9.13;1.40;;;14.00;99.90;;;;;;5006056;28;20034;-77
2024/02/23 07:46:41;;;;;;;2.90;1.10;;;14.00;99.90;;;;;;4998042;28;20464;-77
2024/02/23 07:49:07;;;;;;;1631.68;836.38;;;14.00;99.90;;;;;;5012337;28;20065;-82
2024/02/23 07:51:33;;;;;;;454.60;259.23;;;14.00;99.90;;;;;;5004766;28;20506;-77
2024/02/23 07:53:59;;;;;;;505.40;282.70;;;14.00;99.90;;;;;;4998437;28;20033;-77
2024/02/23 07:56:24;;;;;;;393.90;209.07;;;14.00;99.90;;;;;;5007459;28;20105;-76
2024/02/23 07:58:50;;;;;;;274.07;142.83;;;14.00;99.90;;;;;;5012056;28;20742;-76
2024/02/23 08:01:16;;;;;;;214.23;111.90;;;14.00;99.90;;;;;;5010972;28;20034;-76
2024/02/23 08:03:41;;;;;;;202.27;104.93;;;14.00;99.90;;;;;;5010132;28;20104;-76
2024/02/23 08:06:07;;;;;;;167.27;86.30;;;14.00;99.90;;;;;;5008172;28;20053;-76
2024/02/23 08:08:35;;;;;;;152.27;78.27;;;14.00;99.90;;;;;;5009108;28;20446;-76
2024/02/23 08:11:05;;;;;;;192.90;100.95;;;14.00;99.90;;;;;;5007703;28;20029;-77
2024/02/23 08:13:31;;;;;;;168.23;84.43;;;14.00;99.90;;;;;;5011567;28;20076;-76
2024/02/23 08:16:00;;;;;;;148.38;77.68;;;14.10;99.90;;;;;;5008321;28;20494;-76
2024/02/23 08:18:26;;;;;;;140.25;72.20;;;14.10;99.90;;;;;;5010663;28;20025;-75
2024/02/23 08:20:52;;;;;;;139.48;70.00;;;14.10;99.90;;;;;;5008183;28;20038;-76
2024/02/23 08:23:19;;;;;;;131.97;71.20;;;14.10;99.90;;;;;;5005922;28;20577;-76
2024/02/23 08:25:45;;;;;;;130.10;67.03;;;14.10;99.90;;;;;;5008339;28;20038;-76
2024/02/23 08:28:11;;;;;;;118.77;62.43;;;14.00;99.90;;;;;;5004307;28;20103;-76
2024/02/23 08:30:36;;;;;;;114.40;60.15;;;14.10;99.90;;;;;;5011076;28;20057;-76
2024/02/23 08:33:02;;;;;;;105.03;56.23;;;14.10;99.90;;;;;;5010591;28;20078;-76
2024/02/23 08:35:28;;;;;;;110.23;55.27;;;14.10;99.90;;;;;;5009898;28;20141;-76
2024/02/23 08:37:54;;;;;;;102.03;52.23;;;14.10;99.90;;;;;;5009805;28;20045;-76
2024/02/23 08:40:19;;;;;;;323.40;164.47;;;14.10;99.90;;;;;;5010202;28;20053;-76
2024/02/23 08:42:47;;;;;;;154.20;81.00;;;14.10;99.90;;;;;;5010095;28;20037;-76
2024/02/23 08:45:13;;;;;;;175.27;94.05;;;14.10;99.90;;;;;;5006462;28;20057;-76
2024/02/23 08:47:39;;;;;;;158.85;83.50;;;14.10;99.90;;;;;;4995598;28;20730;-76
2024/02/23 08:50:06;;;;;;;139.68;76.18;;;14.10;99.90;;;;;;5008969;28;20125;-76
2024/02/23 08:52:32;;;;;;;132.50;72.68;;;14.20;99.90;;;;;;5006410;28;20398;-76
2024/02/23 08:54:57;;;;;;;125.30;64.90;;;14.20;99.90;;;;;;5008247;28;20041;-76
2024/02/23 08:57:23;;;;;;;109.60;57.47;;;14.20;99.90;;;;;;4997837;28;20455;-76
2024/02/23 08:59:49;;;;;;;109.67;58.40;;;14.20;99.90;;;;;;5009843;28;20034;-76
2024/02/23 09:02:15;;;;;;;109.47;55.38;;;14.30;99.90;;;;;;5010938;28;20026;-77
2024/02/23 09:04:41;;;;;;;100.67;53.53;;;14.30;99.90;;;;;;5011328;28;20038;-76
2024/02/23 09:07:07;;;;;;;96.03;51.50;;;14.40;99.90;;;;;;5010551;28;20075;-76
2024/02/23 09:09:32;;;;;;;126.37;65.43;;;14.40;99.90;;;;;;5006919;28;20057;-77
2024/02/23 09:11:58;;;;;;;89.80;48.63;;;14.40;99.90;;;;;;5008056;28;20042;-76
2024/02/23 09:14:25;;;;;;;89.47;47.57;;;14.40;99.90;;;;;;5011444;28;20022;-76
2024/02/23 09:16:51;;;;;;;;;;;14.30;99.90;;;;;;5011266;28;20022;-76
2024/02/23 09:19:18;;;;;;;81.03;43.60;;;14.30;99.90;;;;;;5005781;28;19959;-75
2024/02/23 09:21:44;;;;;;;80.72;43.15;;;14.30;99.90;;;;;;5009400;28;20045;-75
2024/02/23 09:24:10;;;;;;;78.53;42.15;;;14.30;99.90;;;;;;5007825;28;20041;-75
2024/02/23 09:26:36;;;;;;;73.73;39.47;;;14.30;99.90;;;;;;5001085;28;20042;-75
2024/02/23 09:29:01;;;;;;;79.23;40.83;;;14.30;99.90;;;;;;5010477;28;20360;-74
2024/02/23 09:31:28;;;;;;;155.80;93.17;;;14.30;99.90;;;;;;5009659;28;20593;-76
2024/02/23 09:33:57;;;;;;;124.20;69.32;;;14.30;99.90;;;;;;5007038;28;20505;-76
2024/02/23 09:36:23;;;;;;;117.32;68.03;;;14.40;99.90;;;;;;5009807;28;20105;-77
2024/02/23 09:38:50;;;;;;;117.70;64.70;;;14.50;99.90;;;;;;5010337;28;20029;-76
2024/02/23 09:41:23;;;;;;;103.20;57.58;;;14.60;99.90;;;;;;5009504;28;20121;-76
2024/02/23 09:43:49;;;;;;;134.77;90.25;;;14.70;99.90;;;;;;5010371;28;20076;-76
2024/02/23 09:46:16;;;;;;;107.47;65.50;;;14.90;99.90;;;;;;5005472;28;20410;-75
2024/02/23 09:48:46;;;;;;;99.72;61.47;;;15.00;99.90;;;;;;4997660;28;20049;-75
2024/02/23 09:51:16;;;;;;;94.85;55.97;;;15.00;99.90;;;;;;5004347;28;20033;-76
2024/02/23 09:53:42;;;;;;;85.55;50.25;;;15.10;99.90;;;;;;5006469;28;20029;-75
2024/02/23 09:56:10;;;;;;;90.53;49.58;;;15.00;99.90;;;;;;5009581;28;20108;-76
2024/02/23 09:58:40;;;;;;;74.35;46.90;;;15.00;99.90;;;;;;4997748;28;20033;-76
2024/02/23 10:01:06;;;;;;;78.10;46.65;;;14.90;99.90;;;;;;4994829;28;20812;-77
2024/02/23 10:03:32;;;;;;;72.57;42.87;;;14.90;99.90;;;;;;5001472;28;20042;-77
2024/02/23 10:05:57;;;;;;;75.22;43.03;;;14.90;99.90;;;;;;5008185;28;20040;-76
2024/02/23 10:08:23;;;;;;;70.27;42.80;;;14.90;99.90;;;;;;5001614;28;20050;-76
2024/02/23 10:10:50;;;;;;;75.33;45.37;;;15.00;99.90;;;;;;5006051;28;20207;-78
2024/02/23 10:13:20;;;;;;;;;;;15.00;99.90;;;;;;5009365;28;20026;-76
2024/02/23 10:15:47;;;;;;;67.45;36.97;;;15.00;99.90;;;;;;5003653;28;19949;-76
2024/02/23 10:18:13;;;;;;;62.10;37.38;;;15.10;99.90;;;;;;5010200;28;20026;-74
2024/02/23 10:20:39;;;;;;;64.47;37.60;;;15.10;99.90;;;;;;4997443;28;20034;-75
2024/02/23 10:23:05;;;;;;;;;;;15.20;99.90;;;;;;5005624;28;20026;-74
2024/02/23 10:25:34;;;;;;;58.07;34.10;;;15.20;99.90;;;;;;5008268;28;19913;-72
2024/02/23 10:28:02;;;;;;;57.67;34.10;;;15.20;99.90;;;;;;5008686;28;20022;-75
2024/02/23 10:30:27;;;;;;;52.97;32.55;;;15.20;99.90;;;;;;4999816;28;20380;-77
2024/02/23 10:32:56;;;;;;;46.97;28.93;;;15.30;99.90;;;;;;5010363;28;20034;-74
2024/02/23 10:35:23;;;;;;;45.42;28.95;;;15.30;99.90;;;;;;5007471;28;20511;-74
2024/02/23 10:37:51;;;;;;;46.08;29.73;;;15.40;99.90;;;;;;5011886;28;20033;-74
2024/02/23 10:40:18;;;;;;;44.65;25.85;;;15.50;99.90;;;;;;5003572;28;20030;-75
2024/02/23 10:42:51;;;;;;;46.28;27.15;;;15.60;99.90;;;;;;5013063;28;20488;-74
2024/02/23 10:45:18;;;;;;;40.63;25.48;;;16.40;99.90;;;;;;5012722;28;20038;-74
2024/02/23 10:47:45;;;;;;;43.10;26.70;;;16.40;99.90;;;;;;5010390;28;20026;-75
2024/02/23 10:50:16;;;;;;;37.15;24.42;;;16.40;99.90;;;;;;5009614;28;20032;-74
2024/02/23 10:52:42;;;;;;;39.97;23.63;;;16.30;99.90;;;;;;4999986;28;20205;-76
2024/02/23 10:55:12;;;;;;;45.90;24.17;;;16.50;99.90;;;;;;5011144;28;20120;-74
2024/02/23 10:57:39;;;;;;;37.03;22.17;;;16.60;99.90;;;;;;5012877;28;20037;-74
2024/02/23 11:00:09;;;;;;;35.05;21.95;;;16.40;99.90;;;;;;5012913;28;20029;-74
2024/02/23 11:02:41;;;;;;;31.20;20.75;;;16.60;99.90;;;;;;5004303;28;20091;-74
2024/02/23 11:05:12;;;;;;;31.42;19.55;;;16.50;99.90;;;;;;5012948;28;20539;-74
2024/02/23 11:07:41;;;;;;;35.47;19.33;;;16.40;99.90;;;;;;5011530;28;20050;-77
2024/02/23 11:10:09;;;;;;;35.58;19.10;;;16.30;99.90;;;;;;5013435;28;20030;-75
2024/02/23 11:12:35;;;;;;;33.22;17.90;;;16.30;99.90;;;;;;5010648;28;20115;-74
2024/02/23 11:15:01;;;;;;;29.90;17.35;;;16.20;99.90;;;;;;5007654;28;20081;-73
2024/02/23 11:17:32;;;;;;;28.98;16.90;;;16.20;99.90;;;;;;5006290;28;20065;-74
2024/02/23 11:19:58;;;;;;;28.30;17.10;;;16.10;99.90;;;;;;5012669;28;20049;-74
2024/02/23 11:22:31;;;;;;;24.73;15.60;;;16.10;99.90;;;;;;5010982;28;20034;-76
2024/02/23 11:25:10;;;;;;;20.90;15.15;;;16.10;99.90;;;;;;5004653;28;20088;-74
2024/02/23 11:27:37;;;;;;;26.10;15.68;;;16.10;99.90;;;;;;5006608;28;20045;-75
2024/02/23 11:30:05;;;;;;;41.22;24.70;;;16.10;99.90;;;;;;5011393;28;20029;-74
2024/02/23 11:32:43;;;;;;;26.08;15.75;;;16.10;99.90;;;;;;5003207;28;20131;-74
2024/02/23 11:35:13;;;;;;;25.80;14.63;;;16.00;99.90;;;;;;5009504;28;20034;-76
2024/02/23 11:37:56;;;;;;;26.35;13.65;;;16.00;99.90;;;;;;5010007;28;20037;-73
2024/02/23 11:40:22;;;;;;;28.40;13.50;;;16.10;99.90;;;;;;5011367;28;20033;-74
2024/02/23 11:42:48;;;;;;;21.60;13.57;;;16.20;99.90;;;;;;5010187;28;20396;-75
2024/02/23 11:45:13;;;;;;;24.47;13.40;;;16.20;99.90;;;;;;5008977;28;20428;-76
2024/02/23 11:47:39;;;;;;;20.33;12.77;;;16.30;99.90;;;;;;5003022;28;20436;-76
2024/02/23 11:50:11;;;;;;;19.17;11.45;;;16.30;99.90;;;;;;5010078;28;20056;-75
2024/02/23 11:52:40;;;;;;;20.50;13.02;;;16.30;99.90;;;;;;5011035;28;20041;-74
2024/02/23 11:55:08;;;;;;;19.63;11.07;;;16.40;99.90;;;;;;5010825;28;20074;-74
2024/02/23 11:57:34;;;;;;;18.40;11.57;;;17.00;99.90;;;;;;5006790;28;20062;-74
2024/02/23 12:00:03;;;;;;;21.02;10.88;;;17.30;99.90;;;;;;5009809;28;20026;-73
2024/02/23 12:02:29;;;;;;;17.50;10.32;;;17.00;99.90;;;;;;5011047;28;20372;-74
2024/02/23 12:04:55;;;;;;;17.37;10.37;;;16.80;99.90;;;;;;5009944;28;20037;-76
2024/02/23 12:07:21;;;;;;;15.77;10.13;;;16.70;99.90;;;;;;5004769;28;20068;-76
2024/02/23 12:09:47;;;;;;;;;;;16.60;99.90;;;;;;5012890;28;20052;-74
2024/02/23 12:12:13;;;;;;;16.50;10.00;;;16.60;99.90;;;;;;5010368;28;19936;-74
2024/02/23 12:14:42;;;;;;;16.70;8.77;;;16.60;99.90;;;;;;5011257;28;20419;-75
2024/02/23 12:17:08;;;;;;;17.67;8.30;;;16.60;99.90;;;;;;5011538;28;20034;-75
2024/02/23 12:19:43;;;;;;;17.58;8.80;;;16.60;99.90;;;;;;5001350;28;20042;-74
2024/02/23 12:22:11;;;;;;;18.02;9.60;;;16.60;99.90;;;;;;5011488;28;20052;-75
2024/02/23 12:24:37;;;;;;;17.15;9.00;;;16.60;99.90;;;;;;5011369;28;20034;-75
2024/02/23 12:27:05;;;;;;;12.33;8.10;;;16.60;99.90;;;;;;5009790;28;20033;-76
2024/02/23 12:29:30;;;;;;;13.77;7.88;;;16.60;99.90;;;;;;5002149;28;20112;-77
2024/02/23 12:32:07;;;;;;;14.27;8.10;;;16.60;99.90;;;;;;5009224;28;20183;-78
2024/02/23 12:34:33;;;;;;;12.70;7.43;;;16.70;99.90;;;;;;5011358;28;20026;-76
2024/02/23 12:36:59;;;;;;;14.23;6.65;;;16.60;99.90;;;;;;5000766;28;20034;-77